createdAt,value
2019-01-29T00:00:46.628Z,5.40
2019-01-29T00:01:46.808Z,7.30
2019-01-29T00:02:46.988Z,6.30
2019-01-29T00:03:47.179Z,7.40
2019-01-29T00:04:47.360Z,6.10
2019-01-29T00:05:47.537Z,4.40
2019-01-29T00:06:47.717Z,5.90
2019-01-29T00:07:47.903Z,5.50
2019-01-29T00:08:48.082Z,4.90
2019-01-29T00:09:48.264Z,5.40
2019-01-29T00:10:48.442Z,4.50
2019-01-29T00:11:48.686Z,7.20
2019-01-29T00:12:48.802Z,9.30
2019-01-29T00:13:48.981Z,6.20
2019-01-29T00:14:49.165Z,8.40
2019-01-29T00:15:49.343Z,6.00
2019-01-29T00:16:49.521Z,4.70
2019-01-29T00:17:49.707Z,6.10
2019-01-29T00:18:49.881Z,8.10
2019-01-29T00:19:50.080Z,7.40
2019-01-29T00:20:50.262Z,5.50
2019-01-29T00:21:50.441Z,5.20
2019-01-29T00:22:50.618Z,8.70
2019-01-29T00:23:50.804Z,5.60
2019-01-29T00:24:50.978Z,6.60
2019-01-29T00:25:51.159Z,6.10
2019-01-29T00:26:51.343Z,7.70
2019-01-29T00:27:51.540Z,8.00
2019-01-29T00:28:51.704Z,7.90
2019-01-29T00:29:51.891Z,7.10
2019-01-29T00:30:52.068Z,8.20
2019-01-29T00:31:52.254Z,6.50
2019-01-29T00:32:52.433Z,11.00
2019-01-29T00:33:52.646Z,7.90
2019-01-29T00:34:52.811Z,9.60
2019-01-29T00:35:52.992Z,7.00
2019-01-29T00:36:53.176Z,8.50
2019-01-29T00:37:53.362Z,8.20
2019-01-29T00:38:53.549Z,4.80
2019-01-29T00:39:53.746Z,5.40
2019-01-29T00:40:53.930Z,5.30
2019-01-29T00:41:54.113Z,5.50
2019-01-29T00:42:54.299Z,5.60
2019-01-29T00:43:54.478Z,9.00
2019-01-29T00:44:54.657Z,7.30
2019-01-29T00:45:54.835Z,6.90
2019-01-29T00:46:55.028Z,5.80
2019-01-29T00:47:55.208Z,6.40
2019-01-29T00:48:55.394Z,6.70
2019-01-29T00:49:55.580Z,6.70
2019-01-29T00:50:55.761Z,6.20
2019-01-29T00:51:55.937Z,6.90
2019-01-29T00:52:56.120Z,6.30
2019-01-29T00:53:56.338Z,4.70
2019-01-29T00:54:56.485Z,4.20
2019-01-29T00:55:56.669Z,8.10
2019-01-29T00:56:56.845Z,10.20
2019-01-29T00:57:57.021Z,6.50
2019-01-29T00:58:57.205Z,8.20
2019-01-29T00:59:57.412Z,9.10
2019-01-29T01:00:57.596Z,10.30
2019-01-29T01:01:57.769Z,4.70
2019-01-29T01:02:57.947Z,6.70
2019-01-29T01:03:58.142Z,4.90
2019-01-29T01:04:58.313Z,5.20
2019-01-29T01:05:58.496Z,5.70
2019-01-29T01:06:58.668Z,6.10
2019-01-29T01:07:58.870Z,4.40
2019-01-29T01:08:59.049Z,8.00
2019-01-29T01:09:59.242Z,7.60
2019-01-29T01:10:59.414Z,6.40
2019-01-29T01:11:59.593Z,5.00
2019-01-29T01:12:59.795Z,5.30
2019-01-29T01:13:59.964Z,5.90
2019-01-29T01:15:00.167Z,6.10
2019-01-29T01:16:00.346Z,9.10
2019-01-29T01:17:00.521Z,6.30
2019-01-29T01:18:00.709Z,6.30
2019-01-29T01:19:00.881Z,4.50
2019-01-29T01:20:01.106Z,8.50
2019-01-29T01:21:01.259Z,6.80
2019-01-29T01:22:01.425Z,9.30
2019-01-29T01:23:01.609Z,10.10
2019-01-29T01:24:01.784Z,7.10
2019-01-29T01:25:01.971Z,10.10
2019-01-29T01:26:02.178Z,3.60
2019-01-29T01:27:02.324Z,8.40
2019-01-29T01:28:02.502Z,11.00
2019-01-29T01:29:02.683Z,7.00
2019-01-29T01:30:02.864Z,7.90
2019-01-29T01:31:03.050Z,4.00
2019-01-29T01:32:03.227Z,7.70
2019-01-29T01:33:03.404Z,6.30
2019-01-29T01:34:03.589Z,7.80
2019-01-29T01:35:03.769Z,6.90
2019-01-29T01:36:03.954Z,6.90
2019-01-29T01:37:04.126Z,5.30
2019-01-29T01:38:04.315Z,6.70
2019-01-29T01:39:04.484Z,6.50
2019-01-29T01:40:04.665Z,7.00
2019-01-29T01:41:04.845Z,5.10
2019-01-29T01:42:05.030Z,7.50
2019-01-29T01:43:05.209Z,5.60
2019-01-29T01:44:05.384Z,5.20
2019-01-29T01:45:05.566Z,9.40
2019-01-29T01:46:05.749Z,7.30
2019-01-29T01:47:05.922Z,5.10
2019-01-29T01:48:06.105Z,6.80
2019-01-29T01:49:06.280Z,8.40
2019-01-29T01:50:06.476Z,7.20
2019-01-29T01:51:06.643Z,7.00
2019-01-29T01:52:06.819Z,8.90
2019-01-29T01:53:07.003Z,5.50
2019-01-29T01:54:07.178Z,5.80
2019-01-29T01:55:07.358Z,5.20
2019-01-29T01:56:07.540Z,6.40
2019-01-29T01:57:07.722Z,6.80
2019-01-29T01:58:07.902Z,6.80
2019-01-29T01:59:08.076Z,5.20
2019-01-29T02:00:08.258Z,6.00
2019-01-29T02:01:08.438Z,5.90
2019-01-29T02:02:08.621Z,7.10
2019-01-29T02:03:08.803Z,8.50
2019-01-29T02:04:08.990Z,6.00
2019-01-29T02:05:09.163Z,9.30
2019-01-29T02:06:09.345Z,6.20
2019-01-29T02:07:09.535Z,9.90
2019-01-29T02:08:09.716Z,6.30
2019-01-29T02:09:09.901Z,8.20
2019-01-29T02:10:10.078Z,6.70
2019-01-29T02:11:10.257Z,6.30
2019-01-29T02:12:10.447Z,6.30
2019-01-29T02:13:10.639Z,6.40
2019-01-29T02:14:10.817Z,6.80
2019-01-29T02:15:10.998Z,8.00
2019-01-29T02:16:11.174Z,6.90
2019-01-29T02:17:11.352Z,8.60
2019-01-29T02:18:11.535Z,7.10
2019-01-29T02:19:11.716Z,5.00
2019-01-29T02:20:11.895Z,5.00
2019-01-29T02:21:12.081Z,6.60
2019-01-29T02:22:12.259Z,5.60
2019-01-29T02:23:12.440Z,9.20
2019-01-29T02:24:12.614Z,7.40
2019-01-29T02:25:12.798Z,5.90
2019-01-29T02:26:12.977Z,5.30
2019-01-29T02:27:13.150Z,8.70
2019-01-29T02:28:13.328Z,7.20
2019-01-29T02:29:13.511Z,5.00
2019-01-29T02:30:13.696Z,7.30
2019-01-29T02:31:13.881Z,7.20
2019-01-29T02:32:14.055Z,5.70
2019-01-29T02:33:14.234Z,8.80
2019-01-29T02:34:14.413Z,7.90
2019-01-29T02:35:14.595Z,4.90
2019-01-29T02:36:14.770Z,8.30
2019-01-29T02:37:14.953Z,6.90
2019-01-29T02:38:15.136Z,7.60
2019-01-29T02:39:15.313Z,6.90
2019-01-29T02:40:15.488Z,7.60
2019-01-29T02:41:15.667Z,11.60
2019-01-29T02:42:15.849Z,10.20
2019-01-29T02:43:16.026Z,6.00
2019-01-29T02:44:16.208Z,7.90
2019-01-29T02:45:16.392Z,8.50
2019-01-29T02:46:16.569Z,5.50
2019-01-29T02:47:16.743Z,6.10
2019-01-29T02:48:16.919Z,6.20
2019-01-29T02:49:17.099Z,8.00
2019-01-29T02:50:17.274Z,7.80
2019-01-29T02:51:17.972Z,8.60
2019-01-29T02:52:17.632Z,6.70
2019-01-29T02:53:18.622Z,8.20
2019-01-29T02:54:17.993Z,8.70
2019-01-29T02:55:18.179Z,7.00
2019-01-29T02:56:18.355Z,7.90
2019-01-29T02:57:18.541Z,7.70
2019-01-29T02:58:18.721Z,7.70
2019-01-29T02:59:18.901Z,9.40
2019-01-29T03:00:19.080Z,10.70
2019-01-29T03:01:19.265Z,8.10
2019-01-29T03:02:19.445Z,6.90
2019-01-29T03:03:19.621Z,5.50
2019-01-29T03:04:19.804Z,6.80
2019-01-29T03:05:19.978Z,6.50
2019-01-29T03:06:20.157Z,7.10
2019-01-29T03:07:20.337Z,4.80
2019-01-29T03:08:20.513Z,5.20
2019-01-29T03:09:20.703Z,5.30
2019-01-29T03:10:20.876Z,5.70
2019-01-29T03:11:21.057Z,7.10
2019-01-29T03:12:21.234Z,9.70
2019-01-29T03:13:21.420Z,6.90
2019-01-29T03:14:21.602Z,7.70
2019-01-29T03:15:21.782Z,7.50
2019-01-29T03:16:21.959Z,8.80
2019-01-29T03:17:22.138Z,8.60
2019-01-29T03:18:22.318Z,10.20
2019-01-29T03:19:22.498Z,7.20
2019-01-29T03:20:22.685Z,5.60
2019-01-29T03:21:22.871Z,7.40
2019-01-29T03:22:23.043Z,7.30
2019-01-29T03:23:27.658Z,8.90
2019-01-29T03:24:23.405Z,8.40
2019-01-29T03:25:23.580Z,7.40
2019-01-29T03:26:23.756Z,9.80
2019-01-29T03:27:23.936Z,8.30
2019-01-29T03:28:24.115Z,8.40
2019-01-29T03:29:24.280Z,9.70
2019-01-29T03:30:24.563Z,10.00
2019-01-29T03:31:24.596Z,7.80
2019-01-29T03:32:24.775Z,7.20
2019-01-29T03:33:24.955Z,6.30
2019-01-29T03:34:25.138Z,5.70
2019-01-29T03:35:25.318Z,8.90
2019-01-29T03:36:25.494Z,8.60
2019-01-29T03:37:25.674Z,11.20
2019-01-29T03:38:25.853Z,8.40
2019-01-29T03:39:26.039Z,9.80
2019-01-29T03:40:26.229Z,6.20
2019-01-29T03:41:26.397Z,9.10
2019-01-29T03:42:26.579Z,10.70
2019-01-29T03:43:26.761Z,10.30
2019-01-29T03:44:26.938Z,7.10
2019-01-29T03:45:27.119Z,9.80
2019-01-29T03:46:27.294Z,15.00
2019-01-29T03:47:27.475Z,9.50
2019-01-29T03:48:27.656Z,9.40
2019-01-29T03:49:27.836Z,10.00
2019-01-29T03:50:29.230Z,8.20
2019-01-29T03:51:28.196Z,7.90
2019-01-29T03:52:28.374Z,8.30
2019-01-29T03:53:37.801Z,9.20
2019-01-29T03:54:28.730Z,8.70
2019-01-29T03:55:28.911Z,8.10
2019-01-29T03:56:29.087Z,9.60
2019-01-29T03:57:29.269Z,12.00
2019-01-29T03:58:29.446Z,9.10
2019-01-29T03:59:29.629Z,9.90
2019-01-29T04:00:29.812Z,9.70
2019-01-29T04:01:29.992Z,6.00
2019-01-29T04:02:30.167Z,8.20
2019-01-29T04:03:30.346Z,11.30
2019-01-29T04:04:30.524Z,7.40
2019-01-29T04:05:30.713Z,8.90
2019-01-29T04:06:30.895Z,8.60
2019-01-29T04:07:31.080Z,8.20
2019-01-29T04:08:31.259Z,9.00
2019-01-29T04:09:31.433Z,10.30
2019-01-29T04:10:31.610Z,9.50
2019-01-29T04:11:31.789Z,8.90
2019-01-29T04:12:31.968Z,13.60
2019-01-29T04:13:32.149Z,9.50
2019-01-29T04:14:32.324Z,10.10
2019-01-29T04:15:32.506Z,7.80
2019-01-29T04:16:32.686Z,9.20
2019-01-29T04:17:32.867Z,10.90
2019-01-29T04:18:33.050Z,9.70
2019-01-29T04:19:33.227Z,10.70
2019-01-29T04:20:33.403Z,11.20
2019-01-29T04:21:33.580Z,10.20
2019-01-29T04:22:33.771Z,9.90
2019-01-29T04:23:33.954Z,10.50
2019-01-29T04:24:34.134Z,10.90
2019-01-29T04:25:34.317Z,9.90
2019-01-29T04:26:34.493Z,12.70
2019-01-29T04:27:34.680Z,10.80
2019-01-29T04:28:34.858Z,15.90
2019-01-29T04:29:35.037Z,13.70
2019-01-29T04:30:35.216Z,10.00
2019-01-29T04:31:35.407Z,10.70
2019-01-29T04:32:36.254Z,9.30
2019-01-29T04:33:35.768Z,8.30
2019-01-29T04:34:35.951Z,12.50
2019-01-29T04:35:36.140Z,9.60
2019-01-29T04:36:36.319Z,10.30
2019-01-29T04:37:36.502Z,8.50
2019-01-29T04:38:36.706Z,11.40
2019-01-29T04:39:36.879Z,13.10
2019-01-29T04:40:37.057Z,10.40
2019-01-29T04:41:37.241Z,8.60
2019-01-29T04:42:37.422Z,9.00
2019-01-29T04:43:37.601Z,11.90
2019-01-29T04:44:37.775Z,13.30
2019-01-29T04:45:37.959Z,9.00
2019-01-29T04:46:38.142Z,9.60
2019-01-29T04:47:38.317Z,12.00
2019-01-29T04:48:38.498Z,8.70
2019-01-29T04:49:38.682Z,8.60
2019-01-29T04:50:38.860Z,11.50
2019-01-29T04:51:39.039Z,7.60
2019-01-29T04:52:39.215Z,10.00
2019-01-29T04:53:39.393Z,9.10
2019-01-29T04:54:39.580Z,7.70
2019-01-29T04:55:39.758Z,10.70
2019-01-29T04:56:39.937Z,12.00
2019-01-29T04:57:40.121Z,8.50
2019-01-29T04:58:40.291Z,11.90
2019-01-29T04:59:40.468Z,9.50
2019-01-29T05:00:40.664Z,8.50
2019-01-29T05:01:40.849Z,8.90
2019-01-29T05:02:41.033Z,7.10
2019-01-29T05:03:41.221Z,8.50
2019-01-29T05:04:41.398Z,13.00
2019-01-29T05:05:41.855Z,11.10
2019-01-29T05:06:41.781Z,10.00
2019-01-29T05:07:41.959Z,14.10
2019-01-29T05:08:42.140Z,11.00
2019-01-29T05:09:42.319Z,10.80
2019-01-29T05:10:42.501Z,10.10
2019-01-29T05:11:42.678Z,11.20
2019-01-29T05:12:42.860Z,10.00
2019-01-29T05:13:43.038Z,11.30
2019-01-29T05:14:43.217Z,15.90
2019-01-29T05:15:43.424Z,12.70
2019-01-29T05:16:43.577Z,12.60
2019-01-29T05:17:43.753Z,15.70
2019-01-29T05:18:43.939Z,13.80
2019-01-29T05:19:44.113Z,12.00
2019-01-29T05:20:44.292Z,13.00
2019-01-29T05:21:44.472Z,16.00
2019-01-29T05:22:44.651Z,14.30
2019-01-29T05:23:44.838Z,11.90
2019-01-29T05:24:45.014Z,10.90
2019-01-29T05:25:45.198Z,15.90
2019-01-29T05:26:45.374Z,13.00
2019-01-29T05:27:45.559Z,15.90
2019-01-29T05:28:45.734Z,11.30
2019-01-29T05:29:45.910Z,15.70
2019-01-29T05:30:46.088Z,13.00
2019-01-29T05:31:46.263Z,15.00
2019-01-29T05:32:46.441Z,13.30
2019-01-29T05:33:46.616Z,16.80
2019-01-29T05:34:46.796Z,15.00
2019-01-29T05:35:46.991Z,13.30
2019-01-29T05:36:47.178Z,14.50
2019-01-29T05:37:47.358Z,14.00
2019-01-29T05:38:47.525Z,16.50
2019-01-29T05:39:47.706Z,14.00
2019-01-29T05:40:47.884Z,18.10
2019-01-29T05:41:48.064Z,18.30
2019-01-29T05:42:48.266Z,14.10
2019-01-29T05:43:48.431Z,13.60
2019-01-29T05:44:48.631Z,11.80
2019-01-29T05:45:48.809Z,16.00
2019-01-29T05:46:48.977Z,16.70
2019-01-29T05:47:49.181Z,15.90
2019-01-29T05:48:49.339Z,15.10
2019-01-29T05:49:49.521Z,19.50
2019-01-29T05:50:49.698Z,16.20
2019-01-29T05:51:49.872Z,15.10
2019-01-29T05:52:50.045Z,13.40
2019-01-29T05:53:50.220Z,16.60
2019-01-29T05:54:50.401Z,13.50
2019-01-29T05:55:50.584Z,18.60
2019-01-29T05:56:50.763Z,18.20
2019-01-29T05:57:50.945Z,18.90
2019-01-29T05:58:51.113Z,17.90
2019-01-29T05:59:51.311Z,16.90
2019-01-29T06:00:51.479Z,17.40
2019-01-29T06:01:51.646Z,16.50
2019-01-29T06:02:51.823Z,16.50
2019-01-29T06:03:52.008Z,16.10
2019-01-29T06:04:52.190Z,17.30
2019-01-29T06:05:52.387Z,17.60
2019-01-29T06:06:52.556Z,17.40
2019-01-29T06:07:52.733Z,16.30
2019-01-29T06:08:52.906Z,17.90
2019-01-29T06:09:53.087Z,16.30
2019-01-29T06:10:53.268Z,17.00
2019-01-29T06:11:53.447Z,15.90
2019-01-29T06:12:53.635Z,19.60
2019-01-29T06:13:53.821Z,17.30
2019-01-29T06:14:53.999Z,17.50
2019-01-29T06:15:54.199Z,16.70
2019-01-29T06:16:54.358Z,16.70
2019-01-29T06:17:54.558Z,16.00
2019-01-29T06:18:54.730Z,16.10
2019-01-29T06:19:54.914Z,16.80
2019-01-29T06:20:55.091Z,17.20
2019-01-29T06:21:55.276Z,18.60
2019-01-29T06:22:55.458Z,18.60
2019-01-29T06:23:55.629Z,16.20
2019-01-29T06:24:55.810Z,20.10
2019-01-29T06:25:56.003Z,17.80
2019-01-29T06:26:56.228Z,19.90
2019-01-29T06:27:56.341Z,19.80
2019-01-29T06:28:56.526Z,18.00
2019-01-29T06:29:56.708Z,15.00
2019-01-29T06:30:56.896Z,16.00
2019-01-29T06:31:57.089Z,17.10
2019-01-29T06:32:57.261Z,19.40
2019-01-29T06:33:57.442Z,17.80
2019-01-29T06:34:57.623Z,17.10
2019-01-29T06:35:57.813Z,19.50
2019-01-29T06:36:57.993Z,21.90
2019-01-29T06:37:58.169Z,18.90
2019-01-29T06:38:58.347Z,18.10
2019-01-29T06:39:58.529Z,19.10
2019-01-29T06:40:58.715Z,16.00
2019-01-29T06:41:58.896Z,19.20
2019-01-29T06:42:59.079Z,17.10
2019-01-29T06:43:59.264Z,20.10
2019-01-29T06:44:59.440Z,19.70
2019-01-29T06:45:59.641Z,21.30
2019-01-29T06:46:59.798Z,20.10
2019-01-29T06:47:59.976Z,16.80
2019-01-29T06:49:00.161Z,20.80
2019-01-29T06:50:00.338Z,20.70
2019-01-29T06:51:00.518Z,22.40
2019-01-29T06:52:00.695Z,22.10
2019-01-29T06:53:00.879Z,23.30
2019-01-29T06:54:01.067Z,20.80
2019-01-29T06:55:01.327Z,21.70
2019-01-29T06:56:01.427Z,22.10
2019-01-29T06:57:01.611Z,21.70
2019-01-29T06:58:01.788Z,20.60
2019-01-29T06:59:01.968Z,21.50
2019-01-29T07:00:02.156Z,20.00
2019-01-29T07:01:02.340Z,21.10
2019-01-29T07:02:02.512Z,22.50
2019-01-29T07:03:02.703Z,19.80
2019-01-29T07:04:02.868Z,17.90
2019-01-29T07:05:03.051Z,19.00
2019-01-29T07:06:03.231Z,23.30
2019-01-29T07:07:03.410Z,20.30
2019-01-29T07:08:03.585Z,22.20
2019-01-29T07:09:03.778Z,20.70
2019-01-29T07:10:03.969Z,21.40
2019-01-29T07:11:04.145Z,23.70
2019-01-29T07:12:04.323Z,23.80
2019-01-29T07:13:04.499Z,28.90
2019-01-29T07:14:04.677Z,26.00
2019-01-29T07:15:04.865Z,28.50
2019-01-29T07:16:05.038Z,26.70
2019-01-29T07:17:05.219Z,23.30
2019-01-29T07:18:05.491Z,21.80
2019-01-29T07:19:05.563Z,21.20
2019-01-29T07:20:05.721Z,20.60
2019-01-29T07:21:05.905Z,23.20
2019-01-29T07:22:06.088Z,20.90
2019-01-29T07:23:06.270Z,18.90
2019-01-29T07:24:06.453Z,18.30
2019-01-29T07:25:06.628Z,18.80
2019-01-29T07:26:06.808Z,18.00
2019-01-29T07:27:06.982Z,22.90
2019-01-29T07:28:07.166Z,16.50
2019-01-29T07:29:07.349Z,21.80
2019-01-29T07:30:07.527Z,22.30
2019-01-29T07:31:07.706Z,15.80
2019-01-29T07:32:07.883Z,19.60
2019-01-29T07:33:08.072Z,21.20
2019-01-29T07:34:08.255Z,26.10
2019-01-29T07:35:08.428Z,20.40
2019-01-29T07:36:08.603Z,19.50
2019-01-29T07:37:08.796Z,20.40
2019-01-29T07:38:08.974Z,21.30
2019-01-29T07:39:09.156Z,22.40
2019-01-29T07:40:09.345Z,17.90
2019-01-29T07:41:09.516Z,22.90
2019-01-29T07:42:09.693Z,19.50
2019-01-29T07:43:09.874Z,18.80
2019-01-29T07:44:10.051Z,21.70
2019-01-29T07:45:10.240Z,20.00
2019-01-29T07:46:10.432Z,19.10
2019-01-29T07:47:10.596Z,20.00
2019-01-29T07:48:10.898Z,18.90
2019-01-29T07:49:10.970Z,19.30
2019-01-29T07:50:11.147Z,18.30
2019-01-29T07:51:11.324Z,19.50
2019-01-29T07:52:12.849Z,18.70
2019-01-29T07:53:11.681Z,19.10
2019-01-29T07:54:11.862Z,20.40
2019-01-29T07:55:12.039Z,18.40
2019-01-29T07:56:12.222Z,21.90
2019-01-29T07:57:12.399Z,19.00
2019-01-29T07:58:12.576Z,20.50
2019-01-29T07:59:12.754Z,17.30
2019-01-29T08:00:12.940Z,17.40
2019-01-29T08:01:13.124Z,20.30
2019-01-29T08:02:13.308Z,19.00
2019-01-29T08:03:13.483Z,16.80
2019-01-29T08:04:13.665Z,17.40
2019-01-29T08:05:13.844Z,16.70
2019-01-29T08:06:14.016Z,19.00
2019-01-29T08:07:14.197Z,17.30
2019-01-29T08:08:14.378Z,18.70
2019-01-29T08:09:14.566Z,16.80
2019-01-29T08:10:14.752Z,19.40
2019-01-29T08:11:14.939Z,19.90
2019-01-29T08:12:15.117Z,17.60
2019-01-29T08:13:15.296Z,20.00
2019-01-29T08:14:15.481Z,19.80
2019-01-29T08:15:15.654Z,18.30
2019-01-29T08:16:15.837Z,17.00
2019-01-29T08:17:16.022Z,16.20
2019-01-29T08:18:16.205Z,15.30
2019-01-29T08:19:16.393Z,17.90
2019-01-29T08:20:16.570Z,16.90
2019-01-29T08:21:16.747Z,15.40
2019-01-29T08:22:16.935Z,17.80
2019-01-29T08:23:17.108Z,17.80
2019-01-29T08:24:17.291Z,17.40
2019-01-29T08:25:17.469Z,16.30
2019-01-29T08:26:17.650Z,15.60
2019-01-29T08:27:17.839Z,18.50
2019-01-29T08:28:18.013Z,19.00
2019-01-29T08:29:18.195Z,21.20
2019-01-29T08:30:18.377Z,19.00
2019-01-29T08:31:18.552Z,18.50
2019-01-29T08:32:18.735Z,17.60
2019-01-29T08:33:18.911Z,16.10
2019-01-29T08:34:19.100Z,16.70
2019-01-29T08:35:19.282Z,16.20
2019-01-29T08:36:19.466Z,15.20
2019-01-29T08:37:19.655Z,15.70
2019-01-29T08:38:19.827Z,15.80
2019-01-29T08:39:20.007Z,16.50
2019-01-29T08:40:20.197Z,16.90
2019-01-29T08:41:20.380Z,17.10
2019-01-29T08:42:20.573Z,15.10
2019-01-29T08:43:20.755Z,13.70
2019-01-29T08:44:20.945Z,18.20
2019-01-29T08:45:21.131Z,17.60
2019-01-29T08:46:23.277Z,16.20
2019-01-29T08:47:21.497Z,15.40
2019-01-29T08:48:21.679Z,16.10
2019-01-29T08:49:21.862Z,15.40
2019-01-29T08:50:22.048Z,17.30
2019-01-29T08:51:22.230Z,18.20
2019-01-29T08:52:22.408Z,14.40
2019-01-29T08:53:22.586Z,15.10
2019-01-29T08:54:22.767Z,15.40
2019-01-29T08:55:22.931Z,14.70
2019-01-29T08:56:23.137Z,18.10
2019-01-29T08:57:23.324Z,16.30
2019-01-29T08:58:27.253Z,17.80
2019-01-29T08:59:23.678Z,16.10
2019-01-29T09:00:23.860Z,16.80
2019-01-29T09:01:24.035Z,13.70
2019-01-29T09:02:24.219Z,14.40
2019-01-29T09:03:24.404Z,15.80
2019-01-29T09:04:24.584Z,13.50
2019-01-29T09:05:24.764Z,14.00
2019-01-29T09:06:24.944Z,13.00
2019-01-29T09:07:25.120Z,15.80
2019-01-29T09:08:25.301Z,14.80
2019-01-29T09:09:25.483Z,16.10
2019-01-29T09:10:25.670Z,15.10
2019-01-29T09:11:25.846Z,14.70
2019-01-29T09:12:26.040Z,9.40
2019-01-29T09:13:26.224Z,14.00
2019-01-29T09:14:26.410Z,11.90
2019-01-29T09:15:26.587Z,15.30
2019-01-29T09:16:26.771Z,12.80
2019-01-29T09:17:26.958Z,10.70
2019-01-29T09:18:27.127Z,12.50
2019-01-29T09:19:27.310Z,11.30
2019-01-29T09:20:27.491Z,12.00
2019-01-29T09:21:27.681Z,11.40
2019-01-29T09:22:27.859Z,12.20
2019-01-29T09:23:28.045Z,10.20
2019-01-29T09:24:28.220Z,10.70
2019-01-29T09:25:28.403Z,12.00
2019-01-29T09:26:28.585Z,11.50
2019-01-29T09:27:28.766Z,9.40
2019-01-29T09:28:28.951Z,10.20
2019-01-29T09:29:29.130Z,9.90
2019-01-29T09:30:29.308Z,10.20
2019-01-29T09:31:29.495Z,10.30
2019-01-29T09:32:29.677Z,12.00
2019-01-29T09:33:29.871Z,12.30
2019-01-29T09:34:30.051Z,11.40
2019-01-29T09:35:30.230Z,12.20
2019-01-29T09:36:30.416Z,11.10
2019-01-29T09:37:30.594Z,11.30
2019-01-29T09:38:30.773Z,11.30
2019-01-29T09:39:30.961Z,12.90
2019-01-29T09:40:31.141Z,11.20
2019-01-29T09:41:31.322Z,12.80
2019-01-29T09:42:31.508Z,11.90
2019-01-29T09:43:31.691Z,13.00
2019-01-29T09:44:31.880Z,13.90
2019-01-29T09:45:32.062Z,12.40
2019-01-29T09:46:32.246Z,14.60
2019-01-29T09:47:32.432Z,15.00
2019-01-29T09:48:32.614Z,14.30
2019-01-29T09:49:32.791Z,11.00
2019-01-29T09:50:32.978Z,13.40
2019-01-29T09:51:33.165Z,12.90
2019-01-29T09:52:33.342Z,13.20
2019-01-29T09:53:33.532Z,11.40
2019-01-29T09:54:33.707Z,13.30
2019-01-29T09:55:33.890Z,12.30
2019-01-29T09:56:34.067Z,11.80
2019-01-29T09:57:34.246Z,11.20
2019-01-29T09:58:34.425Z,12.20
2019-01-29T09:59:34.609Z,12.30
2019-01-29T10:00:34.786Z,11.90
2019-01-29T10:01:34.971Z,14.80
2019-01-29T10:02:35.154Z,12.80
2019-01-29T10:03:35.333Z,12.80
2019-01-29T10:04:35.529Z,13.40
2019-01-29T10:05:35.714Z,13.40
2019-01-29T10:06:35.892Z,12.70
2019-01-29T10:07:36.076Z,13.80
2019-01-29T10:08:36.256Z,11.40
2019-01-29T10:09:36.435Z,13.10
2019-01-29T10:10:36.619Z,9.80
2019-01-29T10:11:36.806Z,11.90
2019-01-29T10:12:36.985Z,13.10
2019-01-29T10:13:37.169Z,11.20
2019-01-29T10:14:37.347Z,11.10
2019-01-29T10:15:37.533Z,10.60
2019-01-29T10:16:37.713Z,13.20
2019-01-29T10:17:37.893Z,13.30
2019-01-29T10:18:38.083Z,10.90
2019-01-29T10:19:38.272Z,12.60
2019-01-29T10:20:38.453Z,11.00
2019-01-29T10:21:38.627Z,13.30
2019-01-29T10:22:38.823Z,11.20
2019-01-29T10:23:39.000Z,11.50
2019-01-29T10:24:39.181Z,10.70
2019-01-29T10:25:39.369Z,15.20
2019-01-29T10:26:39.546Z,11.30
2019-01-29T10:27:39.735Z,9.60
2019-01-29T10:28:39.920Z,12.10
2019-01-29T10:29:40.104Z,13.70
2019-01-29T10:30:40.285Z,12.40
2019-01-29T10:31:40.469Z,10.90
2019-01-29T10:32:40.651Z,14.50
2019-01-29T10:33:40.843Z,11.50
2019-01-29T10:34:41.030Z,13.90
2019-01-29T10:35:41.210Z,11.70
2019-01-29T10:36:41.410Z,13.30
2019-01-29T10:37:41.594Z,12.80
2019-01-29T10:38:41.780Z,15.70
2019-01-29T10:39:41.962Z,11.00
2019-01-29T10:40:42.152Z,12.20
2019-01-29T10:41:42.340Z,10.30
2019-01-29T10:42:42.528Z,10.40
2019-01-29T10:43:42.716Z,9.60
2019-01-29T10:44:42.904Z,12.20
2019-01-29T10:45:43.090Z,13.10
2019-01-29T10:46:43.280Z,9.30
2019-01-29T10:47:43.470Z,9.50
2019-01-29T10:48:43.662Z,8.90
2019-01-29T10:49:43.848Z,12.60
2019-01-29T10:50:44.042Z,9.00
2019-01-29T10:51:44.237Z,9.00
2019-01-29T10:52:44.422Z,10.30
2019-01-29T10:53:44.614Z,10.20
2019-01-29T10:54:44.811Z,8.70
2019-01-29T10:55:47.417Z,9.00
2019-01-29T10:56:45.201Z,8.20
2019-01-29T10:57:45.391Z,11.60
2019-01-29T10:58:45.578Z,9.50
2019-01-29T10:59:45.770Z,9.40
2019-01-29T11:00:45.961Z,8.70
2019-01-29T11:01:46.155Z,8.80
2019-01-29T11:02:46.342Z,7.60
2019-01-29T11:03:46.556Z,11.10
2019-01-29T11:04:46.758Z,6.90
2019-01-29T11:05:46.951Z,9.90
2019-01-29T11:06:47.143Z,10.00
2019-01-29T11:07:47.339Z,11.70
2019-01-29T11:08:47.525Z,8.70
2019-01-29T11:09:48.447Z,9.70
2019-01-29T11:10:47.906Z,7.20
2019-01-29T11:11:48.104Z,8.80
2019-01-29T11:12:48.296Z,10.00
2019-01-29T11:13:48.487Z,9.40
2019-01-29T11:14:48.674Z,9.00
2019-01-29T11:15:48.872Z,8.90
2019-01-29T11:16:49.103Z,10.30
2019-01-29T11:17:49.242Z,11.90
2019-01-29T11:18:49.437Z,12.50
2019-01-29T11:19:49.630Z,8.90
2019-01-29T11:20:49.811Z,9.90
2019-01-29T11:21:49.995Z,12.30
2019-01-29T11:22:50.188Z,9.10
2019-01-29T11:23:50.368Z,10.40
2019-01-29T11:24:50.562Z,9.60
2019-01-29T11:25:55.997Z,10.90
2019-01-29T11:26:50.923Z,12.50
2019-01-29T11:27:51.103Z,13.90
2019-01-29T11:28:51.290Z,13.00
2019-01-29T11:29:51.471Z,9.50
2019-01-29T11:30:51.659Z,10.20
2019-01-29T11:31:51.843Z,8.20
2019-01-29T11:32:52.030Z,7.30
2019-01-29T11:33:52.211Z,9.10
2019-01-29T11:34:52.390Z,8.00
2019-01-29T11:35:52.573Z,10.80
2019-01-29T11:36:52.761Z,9.70
2019-01-29T11:37:52.945Z,8.10
2019-01-29T11:38:53.127Z,9.90
2019-01-29T11:39:53.314Z,7.70
2019-01-29T11:40:53.499Z,8.00
2019-01-29T11:41:53.690Z,13.40
2019-01-29T11:42:53.876Z,9.80
2019-01-29T11:43:54.064Z,9.80
2019-01-29T11:44:54.253Z,10.30
2019-01-29T11:45:54.433Z,10.70
2019-01-29T11:46:54.618Z,7.80
2019-01-29T11:47:54.795Z,9.00
2019-01-29T11:48:54.983Z,10.00
2019-01-29T11:49:55.163Z,10.00
2019-01-29T11:50:55.347Z,10.80
2019-01-29T11:51:55.531Z,11.10
2019-01-29T11:52:55.714Z,8.20
2019-01-29T11:53:55.899Z,6.90
2019-01-29T11:54:56.079Z,10.00
2019-01-29T11:56:04.069Z,12.70
2019-01-29T11:56:56.446Z,11.00
2019-01-29T11:57:56.632Z,11.40
2019-01-29T11:58:56.822Z,9.20
2019-01-29T11:59:57.016Z,11.20
2019-01-29T12:00:57.193Z,8.60
2019-01-29T12:01:57.385Z,8.50
2019-01-29T12:02:57.573Z,9.60
2019-01-29T12:03:57.755Z,7.10
2019-01-29T12:04:57.941Z,7.20
2019-01-29T12:05:58.116Z,7.20
2019-01-29T12:06:58.309Z,8.90
2019-01-29T12:07:58.488Z,7.50
2019-01-29T12:08:58.672Z,9.00
2019-01-29T12:09:58.857Z,8.40
2019-01-29T12:10:59.050Z,6.20
2019-01-29T12:11:59.232Z,6.90
2019-01-29T12:12:59.410Z,8.40
2019-01-29T12:13:59.606Z,8.50
2019-01-29T12:14:59.784Z,8.30
2019-01-29T12:15:59.967Z,8.30
2019-01-29T12:17:00.153Z,7.40
2019-01-29T12:18:00.343Z,7.40
2019-01-29T12:19:00.620Z,9.20
2019-01-29T12:20:00.680Z,10.50
2019-01-29T12:21:00.855Z,10.10
2019-01-29T12:22:01.031Z,8.40
2019-01-29T12:23:01.220Z,8.60
2019-01-29T12:24:01.403Z,10.30
2019-01-29T12:25:01.582Z,12.40
2019-01-29T12:26:01.760Z,11.60
2019-01-29T12:27:01.943Z,8.30
2019-01-29T12:28:02.161Z,10.90
2019-01-29T12:29:02.389Z,10.20
2019-01-29T12:30:02.533Z,10.40
2019-01-29T12:31:02.696Z,7.90
2019-01-29T12:32:02.879Z,7.60
2019-01-29T12:33:03.059Z,8.50
2019-01-29T12:34:03.242Z,9.10
2019-01-29T12:35:03.427Z,9.00
2019-01-29T12:36:03.609Z,13.20
2019-01-29T12:37:03.790Z,15.70
2019-01-29T12:38:03.974Z,13.60
2019-01-29T12:39:04.151Z,8.50
2019-01-29T12:40:04.334Z,9.20
2019-01-29T12:41:04.520Z,9.30
2019-01-29T12:42:04.700Z,14.90
2019-01-29T12:43:04.904Z,12.60
2019-01-29T12:44:05.079Z,17.10
2019-01-29T12:45:05.263Z,20.90
2019-01-29T12:46:05.446Z,15.70
2019-01-29T12:47:05.644Z,12.70
2019-01-29T12:48:05.818Z,15.20
2019-01-29T12:49:06.008Z,16.10
2019-01-29T12:50:06.192Z,15.40
2019-01-29T12:51:06.375Z,14.00
2019-01-29T12:52:06.554Z,13.50
2019-01-29T12:53:06.732Z,13.40
2019-01-29T12:54:06.919Z,11.20
2019-01-29T12:55:07.095Z,13.70
2019-01-29T12:56:07.275Z,15.60
2019-01-29T12:57:07.486Z,9.10
2019-01-29T12:58:07.669Z,9.80
2019-01-29T12:59:07.843Z,10.70
2019-01-29T13:00:08.024Z,12.10
2019-01-29T13:01:08.266Z,13.80
2019-01-29T13:02:08.449Z,13.60
2019-01-29T13:03:08.640Z,16.80
2019-01-29T13:04:08.833Z,14.30
2019-01-29T13:05:09.063Z,14.90
2019-01-29T13:06:09.120Z,13.60